sensor_id;sensor_type;location;lat;lon;timestamp;P1;durP1;ratioP1;P2;durP2;ratioP2
3131;SDS011;62090;52.330;9.104;2022-10-31T00:01:38;18.23;;;10.50;;
3131;SDS011;62090;52.330;9.104;2022-10-31T00:04:08;23.03;;;9.57;;
3131;SDS011;62090;52.330;9.104;2022-10-31T00:06:38;22.57;;;10.07;;
3131;SDS011;62090;52.330;9.104;2022-10-31T00:09:09;25.07;;;10.07;;
3131;SDS011;62090;52.330;9.104;2022-10-31T00:11:39;17.70;;;9.83;;
3131;SDS011;62090;52.330;9.104;2022-10-31T00:14:11;21.43;;;9.60;;
3131;SDS011;62090;52.330;9.104;2022-10-31T00:16:41;27.43;;;11.53;;
3131;SDS011;62090;52.330;9.104;2022-10-31T00:19:11;19.57;;;10.77;;
3131;SDS011;62090;52.330;9.104;2022-10-31T00:21:41;21.40;;;10.67;;
3131;SDS011;62090;52.330;9.104;2022-10-31T00:24:10;20.50;;;10.30;;
3131;SDS011;62090;52.330;9.104;2022-10-31T00:26:40;28.07;;;10.27;;
3131;SDS011;62090;52.330;9.104;2022-10-31T00:29:13;27.57;;;11.17;;
3131;SDS011;62090;52.330;9.104;2022-10-31T00:31:43;18.70;;;10.83;;
3131;SDS011;62090;52.330;9.104;2022-10-31T00:34:12;23.67;;;10.23;;
3131;SDS011;62090;52.330;9.104;2022-10-31T00:36:42;29.23;;;12.13;;
3131;SDS011;62090;52.330;9.104;2022-10-31T00:39:12;22.80;;;11.57;;
3131;SDS011;62090;52.330;9.104;2022-10-31T00:41:42;23.50;;;12.00;;
3131;SDS011;62090;52.330;9.104;2022-10-31T00:44:14;25.63;;;11.40;;
3131;SDS011;62090;52.330;9.104;2022-10-31T00:46:45;24.37;;;13.03;;
3131;SDS011;62090;52.330;9.104;2022-10-31T00:49:20;28.40;;;12.80;;
3131;SDS011;62090;52.330;9.104;2022-10-31T00:51:49;33.90;;;13.30;;
3131;SDS011;62090;52.330;9.104;2022-10-31T00:54:19;30.10;;;12.87;;
3131;SDS011;62090;52.330;9.104;2022-10-31T00:56:49;26.30;;;13.10;;
3131;SDS011;62090;52.330;9.104;2022-10-31T00:59:21;31.53;;;15.00;;
3131;SDS011;62090;52.330;9.104;2022-10-31T01:01:51;26.43;;;14.90;;
3131;SDS011;62090;52.330;9.104;2022-10-31T01:04:21;28.03;;;14.03;;
3131;SDS011;62090;52.330;9.104;2022-10-31T01:06:51;23.03;;;13.03;;
3131;SDS011;62090;52.330;9.104;2022-10-31T01:09:23;28.03;;;16.23;;
3131;SDS011;62090;52.330;9.104;2022-10-31T01:11:52;33.60;;;15.37;;
3131;SDS011;62090;52.330;9.104;2022-10-31T01:14:25;30.47;;;14.27;;
3131;SDS011;62090;52.330;9.104;2022-10-31T01:16:56;22.80;;;12.93;;
3131;SDS011;62090;52.330;9.104;2022-10-31T01:19:26;36.40;;;15.70;;
3131;SDS011;62090;52.330;9.104;2022-10-31T01:21:56;24.00;;;13.27;;
3131;SDS011;62090;52.330;9.104;2022-10-31T01:24:28;30.47;;;15.00;;
3131;SDS011;62090;52.330;9.104;2022-10-31T01:27:00;28.30;;;13.93;;
3131;SDS011;62090;52.330;9.104;2022-10-31T01:29:35;36.87;;;16.63;;
3131;SDS011;62090;52.330;9.104;2022-10-31T01:32:05;34.57;;;15.93;;
3131;SDS011;62090;52.330;9.104;2022-10-31T01:34:35;33.57;;;16.90;;
3131;SDS011;62090;52.330;9.104;2022-10-31T01:37:05;29.77;;;16.07;;
3131;SDS011;62090;52.330;9.104;2022-10-31T01:39:34;45.70;;;16.63;;
3131;SDS011;62090;52.330;9.104;2022-10-31T01:42:04;33.80;;;17.10;;
3131;SDS011;62090;52.330;9.104;2022-10-31T01:44:49;29.73;;;16.10;;
3131;SDS011;62090;52.330;9.104;2022-10-31T01:47:33;35.73;;;18.07;;
3131;SDS011;62090;52.330;9.104;2022-10-31T01:50:13;40.83;;;17.97;;
3131;SDS011;62090;52.330;9.104;2022-10-31T01:52:55;35.07;;;18.00;;
3131;SDS011;62090;52.330;9.104;2022-10-31T01:55:28;38.37;;;18.87;;
3131;SDS011;62090;52.330;9.104;2022-10-31T01:57:59;38.20;;;18.03;;
3131;SDS011;62090;52.330;9.104;2022-10-31T02:00:37;40.07;;;17.90;;
3131;SDS011;62090;52.330;9.104;2022-10-31T02:03:08;37.77;;;18.20;;
3131;SDS011;62090;52.330;9.104;2022-10-31T02:05:38;42.07;;;19.80;;
3131;SDS011;62090;52.330;9.104;2022-10-31T02:08:09;46.60;;;21.00;;
3131;SDS011;62090;52.330;9.104;2022-10-31T02:10:48;48.60;;;20.00;;
3131;SDS011;62090;52.330;9.104;2022-10-31T02:13:19;44.03;;;20.90;;
3131;SDS011;62090;52.330;9.104;2022-10-31T02:15:54;43.97;;;20.53;;
3131;SDS011;62090;52.330;9.104;2022-10-31T02:18:27;39.33;;;19.00;;
3131;SDS011;62090;52.330;9.104;2022-10-31T02:21:02;38.93;;;18.73;;
3131;SDS011;62090;52.330;9.104;2022-10-31T02:23:50;40.10;;;21.03;;
3131;SDS011;62090;52.330;9.104;2022-10-31T02:26:43;38.10;;;19.90;;
3131;SDS011;62090;52.330;9.104;2022-10-31T02:32:44;44.93;;;21.20;;
3131;SDS011;62090;52.330;9.104;2022-10-31T02:35:22;41.73;;;20.33;;
3131;SDS011;62090;52.330;9.104;2022-10-31T02:38:00;38.23;;;19.63;;
3131;SDS011;62090;52.330;9.104;2022-10-31T02:40:39;35.73;;;19.43;;
3131;SDS011;62090;52.330;9.104;2022-10-31T02:43:37;44.83;;;19.80;;
3131;SDS011;62090;52.330;9.104;2022-10-31T02:46:14;38.07;;;19.80;;
3131;SDS011;62090;52.330;9.104;2022-10-31T02:48:55;35.43;;;19.43;;
3131;SDS011;62090;52.330;9.104;2022-10-31T02:51:29;37.80;;;19.33;;
3131;SDS011;62090;52.330;9.104;2022-10-31T02:54:01;35.30;;;17.77;;
3131;SDS011;62090;52.330;9.104;2022-10-31T02:56:31;44.67;;;20.00;;
3131;SDS011;62090;52.330;9.104;2022-10-31T02:59:01;36.03;;;18.80;;
3131;SDS011;62090;52.330;9.104;2022-10-31T03:01:39;28.90;;;18.13;;
3131;SDS011;62090;52.330;9.104;2022-10-31T03:04:35;38.30;;;19.13;;
3131;SDS011;62090;52.330;9.104;2022-10-31T03:07:23;33.30;;;17.80;;
3131;SDS011;62090;52.330;9.104;2022-10-31T03:10:00;31.03;;;17.67;;
3131;SDS011;62090;52.330;9.104;2022-10-31T03:12:38;30.53;;;16.87;;
3131;SDS011;62090;52.330;9.104;2022-10-31T03:15:17;24.80;;;16.30;;
3131;SDS011;62090;52.330;9.104;2022-10-31T03:17:53;36.53;;;18.27;;
3131;SDS011;62090;52.330;9.104;2022-10-31T03:20:33;29.97;;;17.60;;
3131;SDS011;62090;52.330;9.104;2022-10-31T03:23:09;31.37;;;17.33;;
3131;SDS011;62090;52.330;9.104;2022-10-31T03:25:47;32.03;;;17.30;;
3131;SDS011;62090;52.330;9.104;2022-10-31T03:28:18;34.27;;;18.90;;
3131;SDS011;62090;52.330;9.104;2022-10-31T03:30:55;33.63;;;17.90;;
3131;SDS011;62090;52.330;9.104;2022-10-31T03:33:35;30.93;;;17.50;;
3131;SDS011;62090;52.330;9.104;2022-10-31T03:36:11;31.00;;;18.37;;
3131;SDS011;62090;52.330;9.104;2022-10-31T03:38:44;32.10;;;17.57;;
3131;SDS011;62090;52.330;9.104;2022-10-31T03:41:18;37.20;;;19.20;;
3131;SDS011;62090;52.330;9.104;2022-10-31T03:43:52;33.33;;;19.67;;
3131;SDS011;62090;52.330;9.104;2022-10-31T03:46:27;34.53;;;19.07;;
3131;SDS011;62090;52.330;9.104;2022-10-31T03:48:58;36.10;;;19.83;;
3131;SDS011;62090;52.330;9.104;2022-10-31T03:51:32;33.17;;;17.70;;
3131;SDS011;62090;52.330;9.104;2022-10-31T03:54:11;37.47;;;19.90;;
3131;SDS011;62090;52.330;9.104;2022-10-31T03:56:48;35.70;;;20.00;;
3131;SDS011;62090;52.330;9.104;2022-10-31T03:59:23;28.80;;;17.60;;
3131;SDS011;62090;52.330;9.104;2022-10-31T04:01:57;41.40;;;20.13;;
3131;SDS011;62090;52.330;9.104;2022-10-31T04:04:31;41.00;;;20.80;;
3131;SDS011;62090;52.330;9.104;2022-10-31T04:07:07;29.23;;;18.80;;
3131;SDS011;62090;52.330;9.104;2022-10-31T04:09:39;43.40;;;21.47;;
3131;SDS011;62090;52.330;9.104;2022-10-31T04:12:13;33.40;;;19.47;;
3131;SDS011;62090;52.330;9.104;2022-10-31T04:15:10;38.67;;;20.30;;
3131;SDS011;62090;52.330;9.104;2022-10-31T04:17:40;25.70;;;17.70;;
3131;SDS011;62090;52.330;9.104;2022-10-31T04:20:15;25.20;;;16.97;;
3131;SDS011;62090;52.330;9.104;2022-10-31T04:22:49;29.80;;;16.00;;
3131;SDS011;62090;52.330;9.104;2022-10-31T04:25:19;29.20;;;15.97;;
3131;SDS011;62090;52.330;9.104;2022-10-31T04:27:51;24.63;;;15.97;;
3131;SDS011;62090;52.330;9.104;2022-10-31T04:30:22;25.47;;;16.03;;
3131;SDS011;62090;52.330;9.104;2022-10-31T04:32:52;33.33;;;17.30;;
3131;SDS011;62090;52.330;9.104;2022-10-31T04:35:22;30.03;;;18.10;;
3131;SDS011;62090;52.330;9.104;2022-10-31T04:37:56;30.27;;;17.33;;
3131;SDS011;62090;52.330;9.104;2022-10-31T04:40:25;28.50;;;18.57;;
3131;SDS011;62090;52.330;9.104;2022-10-31T04:43:14;36.70;;;19.33;;
3131;SDS011;62090;52.330;9.104;2022-10-31T04:46:04;33.73;;;18.60;;
3131;SDS011;62090;52.330;9.104;2022-10-31T04:48:34;36.37;;;19.90;;
3131;SDS011;62090;52.330;9.104;2022-10-31T04:51:05;35.53;;;17.33;;
3131;SDS011;62090;52.330;9.104;2022-10-31T04:53:38;22.93;;;14.40;;
3131;SDS011;62090;52.330;9.104;2022-10-31T04:56:26;27.80;;;14.93;;
3131;SDS011;62090;52.330;9.104;2022-10-31T04:59:02;25.63;;;14.97;;
3131;SDS011;62090;52.330;9.104;2022-10-31T05:01:44;30.80;;;17.00;;
3131;SDS011;62090;52.330;9.104;2022-10-31T05:04:17;32.80;;;16.67;;
3131;SDS011;62090;52.330;9.104;2022-10-31T05:06:46;34.37;;;17.20;;
3131;SDS011;62090;52.330;9.104;2022-10-31T05:09:19;25.57;;;13.60;;
3131;SDS011;62090;52.330;9.104;2022-10-31T05:11:49;23.70;;;13.93;;
3131;SDS011;62090;52.330;9.104;2022-10-31T05:14:41;21.57;;;13.97;;
3131;SDS011;62090;52.330;9.104;2022-10-31T05:17:33;22.20;;;12.97;;
3131;SDS011;62090;52.330;9.104;2022-10-31T05:20:21;21.40;;;11.93;;
3131;SDS011;62090;52.330;9.104;2022-10-31T05:23:07;19.90;;;12.70;;
3131;SDS011;62090;52.330;9.104;2022-10-31T05:25:40;17.17;;;11.90;;
3131;SDS011;62090;52.330;9.104;2022-10-31T05:28:11;20.80;;;12.10;;
3131;SDS011;62090;52.330;9.104;2022-10-31T05:30:41;22.63;;;13.90;;
3131;SDS011;62090;52.330;9.104;2022-10-31T05:33:14;23.20;;;13.53;;
3131;SDS011;62090;52.330;9.104;2022-10-31T05:35:43;17.90;;;12.60;;
3131;SDS011;62090;52.330;9.104;2022-10-31T05:38:32;16.80;;;12.43;;
3131;SDS011;62090;52.330;9.104;2022-10-31T05:41:15;22.50;;;12.00;;
3131;SDS011;62090;52.330;9.104;2022-10-31T05:43:46;20.97;;;11.53;;
3131;SDS011;62090;52.330;9.104;2022-10-31T05:46:20;16.43;;;9.60;;
3131;SDS011;62090;52.330;9.104;2022-10-31T05:49:09;11.50;;;9.60;;
3131;SDS011;62090;52.330;9.104;2022-10-31T05:51:57;18.90;;;10.10;;
3131;SDS011;62090;52.330;9.104;2022-10-31T05:54:41;13.33;;;9.60;;
3131;SDS011;62090;52.330;9.104;2022-10-31T05:57:14;16.40;;;10.90;;
3131;SDS011;62090;52.330;9.104;2022-10-31T05:59:45;25.93;;;9.90;;
3131;SDS011;62090;52.330;9.104;2022-10-31T06:02:21;15.23;;;8.67;;
3131;SDS011;62090;52.330;9.104;2022-10-31T06:05:29;14.67;;;10.63;;
3131;SDS011;62090;52.330;9.104;2022-10-31T06:08:00;15.57;;;10.47;;
3131;SDS011;62090;52.330;9.104;2022-10-31T06:10:31;20.90;;;10.83;;
3131;SDS011;62090;52.330;9.104;2022-10-31T06:13:04;21.97;;;12.50;;
3131;SDS011;62090;52.330;9.104;2022-10-31T06:15:41;27.43;;;12.17;;
3131;SDS011;62090;52.330;9.104;2022-10-31T06:18:11;19.13;;;8.80;;
3131;SDS011;62090;52.330;9.104;2022-10-31T06:20:47;11.40;;;8.30;;
3131;SDS011;62090;52.330;9.104;2022-10-31T06:23:17;8.17;;;6.57;;
3131;SDS011;62090;52.330;9.104;2022-10-31T06:25:52;8.60;;;6.43;;
3131;SDS011;62090;52.330;9.104;2022-10-31T06:28:24;10.50;;;6.90;;
3131;SDS011;62090;52.330;9.104;2022-10-31T06:31:01;12.00;;;7.90;;
3131;SDS011;62090;52.330;9.104;2022-10-31T06:33:32;11.67;;;7.63;;
3131;SDS011;62090;52.330;9.104;2022-10-31T06:36:04;11.07;;;8.43;;
3131;SDS011;62090;52.330;9.104;2022-10-31T06:38:35;17.67;;;10.90;;
3131;SDS011;62090;52.330;9.104;2022-10-31T06:41:07;22.77;;;11.40;;
3131;SDS011;62090;52.330;9.104;2022-10-31T06:43:44;15.10;;;10.00;;
3131;SDS011;62090;52.330;9.104;2022-10-31T06:46:34;18.00;;;9.70;;
3131;SDS011;62090;52.330;9.104;2022-10-31T06:49:24;18.57;;;11.57;;
3131;SDS011;62090;52.330;9.104;2022-10-31T06:51:58;17.40;;;11.50;;
3131;SDS011;62090;52.330;9.104;2022-10-31T06:54:29;23.87;;;11.60;;
3131;SDS011;62090;52.330;9.104;2022-10-31T06:56:59;16.60;;;9.27;;
3131;SDS011;62090;52.330;9.104;2022-10-31T06:59:33;15.90;;;8.67;;
3131;SDS011;62090;52.330;9.104;2022-10-31T07:02:09;19.87;;;9.13;;
3131;SDS011;62090;52.330;9.104;2022-10-31T07:04:41;14.40;;;8.90;;
3131;SDS011;62090;52.330;9.104;2022-10-31T07:07:17;11.73;;;8.60;;
3131;SDS011;62090;52.330;9.104;2022-10-31T07:09:50;14.73;;;9.53;;
3131;SDS011;62090;52.330;9.104;2022-10-31T07:12:34;19.20;;;10.37;;
3131;SDS011;62090;52.330;9.104;2022-10-31T07:15:08;18.30;;;11.00;;
3131;SDS011;62090;52.330;9.104;2022-10-31T07:17:39;23.80;;;12.80;;
3131;SDS011;62090;52.330;9.104;2022-10-31T07:20:10;19.27;;;12.40;;
3131;SDS011;62090;52.330;9.104;2022-10-31T07:22:44;15.07;;;11.37;;
3131;SDS011;62090;52.330;9.104;2022-10-31T07:25:17;15.27;;;11.07;;
3131;SDS011;62090;52.330;9.104;2022-10-31T07:28:04;11.07;;;8.83;;
3131;SDS011;62090;52.330;9.104;2022-10-31T07:30:37;10.03;;;8.20;;
3131;SDS011;62090;52.330;9.104;2022-10-31T07:33:08;12.27;;;9.70;;
3131;SDS011;62090;52.330;9.104;2022-10-31T07:36:02;14.90;;;10.50;;
3131;SDS011;62090;52.330;9.104;2022-10-31T07:38:33;13.80;;;10.30;;
3131;SDS011;62090;52.330;9.104;2022-10-31T07:41:03;15.87;;;10.40;;
3131;SDS011;62090;52.330;9.104;2022-10-31T07:43:39;18.63;;;11.20;;
3131;SDS011;62090;52.330;9.104;2022-10-31T07:46:21;24.67;;;12.10;;
3131;SDS011;62090;52.330;9.104;2022-10-31T07:49:14;17.83;;;10.93;;
3131;SDS011;62090;52.330;9.104;2022-10-31T07:52:07;15.53;;;11.67;;
3131;SDS011;62090;52.330;9.104;2022-10-31T07:54:57;16.40;;;12.20;;
3131;SDS011;62090;52.330;9.104;2022-10-31T07:57:27;16.80;;;12.00;;
3131;SDS011;62090;52.330;9.104;2022-10-31T08:00:00;14.43;;;11.63;;
3131;SDS011;62090;52.330;9.104;2022-10-31T08:02:42;15.80;;;11.30;;
3131;SDS011;62090;52.330;9.104;2022-10-31T08:05:34;17.97;;;12.23;;
3131;SDS011;62090;52.330;9.104;2022-10-31T08:08:24;17.27;;;13.00;;
3131;SDS011;62090;52.330;9.104;2022-10-31T08:11:00;22.40;;;14.10;;
3131;SDS011;62090;52.330;9.104;2022-10-31T08:13:32;18.03;;;13.63;;
3131;SDS011;62090;52.330;9.104;2022-10-31T08:16:02;20.20;;;14.10;;
3131;SDS011;62090;52.330;9.104;2022-10-31T08:18:44;21.97;;;16.20;;
3131;SDS011;62090;52.330;9.104;2022-10-31T08:21:14;25.83;;;17.97;;
3131;SDS011;62090;52.330;9.104;2022-10-31T08:23:48;28.30;;;18.17;;
3131;SDS011;62090;52.330;9.104;2022-10-31T08:26:21;44.57;;;23.20;;
3131;SDS011;62090;52.330;9.104;2022-10-31T08:28:54;39.23;;;22.63;;
3131;SDS011;62090;52.330;9.104;2022-10-31T08:31:28;40.87;;;22.43;;
3131;SDS011;62090;52.330;9.104;2022-10-31T08:34:23;48.23;;;25.97;;
3131;SDS011;62090;52.330;9.104;2022-10-31T08:37:12;44.73;;;25.43;;
3131;SDS011;62090;52.330;9.104;2022-10-31T08:39:50;51.50;;;26.07;;
3131;SDS011;62090;52.330;9.104;2022-10-31T08:42:21;42.47;;;25.40;;
3131;SDS011;62090;52.330;9.104;2022-10-31T08:44:51;40.43;;;23.57;;
3131;SDS011;62090;52.330;9.104;2022-10-31T08:47:21;38.00;;;25.63;;
3131;SDS011;62090;52.330;9.104;2022-10-31T08:49:56;41.97;;;25.20;;
3131;SDS011;62090;52.330;9.104;2022-10-31T08:52:27;41.03;;;22.83;;
3131;SDS011;62090;52.330;9.104;2022-10-31T08:55:17;39.43;;;24.40;;
3131;SDS011;62090;52.330;9.104;2022-10-31T08:57:54;38.33;;;23.30;;
3131;SDS011;62090;52.330;9.104;2022-10-31T09:00:34;49.03;;;23.93;;
3131;SDS011;62090;52.330;9.104;2022-10-31T09:03:13;41.17;;;23.03;;
3131;SDS011;62090;52.330;9.104;2022-10-31T09:05:50;33.80;;;21.27;;
3131;SDS011;62090;52.330;9.104;2022-10-31T09:08:47;32.67;;;21.83;;
3131;SDS011;62090;52.330;9.104;2022-10-31T09:11:19;39.93;;;23.27;;
3131;SDS011;62090;52.330;9.104;2022-10-31T09:14:16;48.03;;;22.50;;
3131;SDS011;62090;52.330;9.104;2022-10-31T09:17:05;43.93;;;24.20;;
3131;SDS011;62090;52.330;9.104;2022-10-31T09:20:11;34.43;;;21.50;;
3131;SDS011;62090;52.330;9.104;2022-10-31T09:22:41;49.23;;;21.87;;
3131;SDS011;62090;52.330;9.104;2022-10-31T09:25:14;38.03;;;20.70;;
3131;SDS011;62090;52.330;9.104;2022-10-31T09:27:55;42.40;;;19.70;;
3131;SDS011;62090;52.330;9.104;2022-10-31T09:30:29;36.70;;;18.00;;
3131;SDS011;62090;52.330;9.104;2022-10-31T09:33:02;41.03;;;19.90;;
3131;SDS011;62090;52.330;9.104;2022-10-31T09:35:33;31.90;;;18.90;;
3131;SDS011;62090;52.330;9.104;2022-10-31T09:38:05;33.70;;;18.80;;
3131;SDS011;62090;52.330;9.104;2022-10-31T09:40:41;30.60;;;16.97;;
3131;SDS011;62090;52.330;9.104;2022-10-31T09:43:14;28.37;;;16.00;;
3131;SDS011;62090;52.330;9.104;2022-10-31T09:45:53;30.25;;;17.80;;
3131;SDS011;62090;52.330;9.104;2022-10-31T09:48:47;34.00;;;16.83;;
3131;SDS011;62090;52.330;9.104;2022-10-31T09:51:37;32.30;;;18.43;;
3131;SDS011;62090;52.330;9.104;2022-10-31T09:54:26;35.63;;;18.57;;
3131;SDS011;62090;52.330;9.104;2022-10-31T09:57:04;41.53;;;19.90;;
3131;SDS011;62090;52.330;9.104;2022-10-31T09:59:43;28.90;;;17.93;;
3131;SDS011;62090;52.330;9.104;2022-10-31T10:02:17;37.13;;;18.57;;
3131;SDS011;62090;52.330;9.104;2022-10-31T10:04:53;36.97;;;19.27;;
3131;SDS011;62090;52.330;9.104;2022-10-31T10:07:30;34.83;;;18.30;;
3131;SDS011;62090;52.330;9.104;2022-10-31T10:10:31;35.63;;;19.90;;
3131;SDS011;62090;52.330;9.104;2022-10-31T10:13:34;29.80;;;18.57;;
3131;SDS011;62090;52.330;9.104;2022-10-31T10:16:21;36.13;;;21.00;;
3131;SDS011;62090;52.330;9.104;2022-10-31T10:19:18;44.50;;;20.40;;
3131;SDS011;62090;52.330;9.104;2022-10-31T10:21:59;30.53;;;19.80;;
3131;SDS011;62090;52.330;9.104;2022-10-31T10:26:36;35.47;;;20.80;;
3131;SDS011;62090;52.330;9.104;2022-10-31T10:29:14;37.00;;;21.93;;
3131;SDS011;62090;52.330;9.104;2022-10-31T10:31:56;42.03;;;20.80;;
3131;SDS011;62090;52.330;9.104;2022-10-31T10:34:31;35.27;;;20.93;;
3131;SDS011;62090;52.330;9.104;2022-10-31T10:37:09;39.50;;;20.37;;
3131;SDS011;62090;52.330;9.104;2022-10-31T10:39:51;34.90;;;18.50;;
3131;SDS011;62090;52.330;9.104;2022-10-31T10:42:27;36.93;;;19.23;;
3131;SDS011;62090;52.330;9.104;2022-10-31T10:45:42;47.13;;;21.70;;
3131;SDS011;62090;52.330;9.104;2022-10-31T10:48:38;31.43;;;19.67;;
3131;SDS011;62090;52.330;9.104;2022-10-31T10:51:22;35.93;;;20.57;;
3131;SDS011;62090;52.330;9.104;2022-10-31T10:54:21;36.20;;;19.90;;
3131;SDS011;62090;52.330;9.104;2022-10-31T11:00:10;36.33;;;20.43;;
3131;SDS011;62090;52.330;9.104;2022-10-31T11:02:49;31.87;;;18.23;;
3131;SDS011;62090;52.330;9.104;2022-10-31T11:05:22;29.80;;;17.20;;
3131;SDS011;62090;52.330;9.104;2022-10-31T11:07:54;37.43;;;18.93;;
3131;SDS011;62090;52.330;9.104;2022-10-31T11:10:25;33.37;;;18.03;;
3131;SDS011;62090;52.330;9.104;2022-10-31T11:13:03;25.50;;;18.90;;
3131;SDS011;62090;52.330;9.104;2022-10-31T11:15:38;29.10;;;17.97;;
3131;SDS011;62090;52.330;9.104;2022-10-31T11:18:25;45.53;;;18.60;;
3131;SDS011;62090;52.330;9.104;2022-10-31T11:20:57;39.57;;;19.07;;
3131;SDS011;62090;52.330;9.104;2022-10-31T11:23:30;36.00;;;16.97;;
3131;SDS011;62090;52.330;9.104;2022-10-31T11:26:02;30.33;;;17.50;;
3131;SDS011;62090;52.330;9.104;2022-10-31T11:28:34;30.57;;;16.03;;
3131;SDS011;62090;52.330;9.104;2022-10-31T11:31:05;27.90;;;15.70;;
3131;SDS011;62090;52.330;9.104;2022-10-31T11:33:40;30.83;;;15.70;;
3131;SDS011;62090;52.330;9.104;2022-10-31T11:36:18;31.87;;;16.33;;
3131;SDS011;62090;52.330;9.104;2022-10-31T11:38:54;34.87;;;15.20;;
3131;SDS011;62090;52.330;9.104;2022-10-31T11:41:25;29.50;;;16.03;;
3131;SDS011;62090;52.330;9.104;2022-10-31T11:43:58;26.00;;;15.00;;
3131;SDS011;62090;52.330;9.104;2022-10-31T11:46:32;29.43;;;15.77;;
3131;SDS011;62090;52.330;9.104;2022-10-31T11:49:11;26.07;;;15.93;;
3131;SDS011;62090;52.330;9.104;2022-10-31T11:51:46;32.10;;;15.63;;
3131;SDS011;62090;52.330;9.104;2022-10-31T11:54:20;23.97;;;13.07;;
3131;SDS011;62090;52.330;9.104;2022-10-31T11:56:52;24.10;;;14.90;;
3131;SDS011;62090;52.330;9.104;2022-10-31T11:59:23;40.23;;;16.00;;
3131;SDS011;62090;52.330;9.104;2022-10-31T12:01:56;24.00;;;14.13;;
3131;SDS011;62090;52.330;9.104;2022-10-31T12:04:34;23.13;;;12.80;;
3131;SDS011;62090;52.330;9.104;2022-10-31T12:07:09;26.57;;;12.27;;
3131;SDS011;62090;52.330;9.104;2022-10-31T12:09:39;23.80;;;10.90;;
3131;SDS011;62090;52.330;9.104;2022-10-31T12:12:21;22.53;;;10.97;;
3131;SDS011;62090;52.330;9.104;2022-10-31T12:15:19;26.57;;;10.87;;
3131;SDS011;62090;52.330;9.104;2022-10-31T12:21:09;28.57;;;12.80;;
3131;SDS011;62090;52.330;9.104;2022-10-31T12:23:50;22.20;;;12.77;;
3131;SDS011;62090;52.330;9.104;2022-10-31T12:26:31;25.47;;;12.47;;
3131;SDS011;62090;52.330;9.104;2022-10-31T12:29:11;31.30;;;11.40;;
3131;SDS011;62090;52.330;9.104;2022-10-31T12:31:56;24.53;;;12.43;;
3131;SDS011;62090;52.330;9.104;2022-10-31T12:37:41;21.50;;;12.33;;
3131;SDS011;62090;52.330;9.104;2022-10-31T12:40:30;24.70;;;12.70;;
3131;SDS011;62090;52.330;9.104;2022-10-31T12:43:16;24.73;;;13.20;;
3131;SDS011;62090;52.330;9.104;2022-10-31T12:45:59;26.93;;;13.07;;
3131;SDS011;62090;52.330;9.104;2022-10-31T12:48:44;26.87;;;12.50;;
3131;SDS011;62090;52.330;9.104;2022-10-31T12:51:28;25.47;;;12.50;;
3131;SDS011;62090;52.330;9.104;2022-10-31T12:54:15;26.43;;;11.20;;
3131;SDS011;62090;52.330;9.104;2022-10-31T12:57:02;24.83;;;11.10;;
3131;SDS011;62090;52.330;9.104;2022-10-31T12:59:40;23.03;;;10.80;;
3131;SDS011;62090;52.330;9.104;2022-10-31T13:02:17;19.33;;;9.30;;
3131;SDS011;62090;52.330;9.104;2022-10-31T13:04:51;28.07;;;10.00;;
3131;SDS011;62090;52.330;9.104;2022-10-31T13:07:27;30.40;;;11.43;;
3131;SDS011;62090;52.330;9.104;2022-10-31T13:10:03;25.33;;;11.80;;
3131;SDS011;62090;52.330;9.104;2022-10-31T13:12:38;31.10;;;11.67;;
3131;SDS011;62090;52.330;9.104;2022-10-31T13:15:12;25.40;;;12.20;;
3131;SDS011;62090;52.330;9.104;2022-10-31T13:17:53;22.93;;;12.80;;
3131;SDS011;62090;52.330;9.104;2022-10-31T13:20:27;23.30;;;11.47;;
3131;SDS011;62090;52.330;9.104;2022-10-31T13:23:03;32.40;;;11.97;;
3131;SDS011;62090;52.330;9.104;2022-10-31T13:26:01;23.93;;;12.10;;
3131;SDS011;62090;52.330;9.104;2022-10-31T13:28:40;27.30;;;11.50;;
3131;SDS011;62090;52.330;9.104;2022-10-31T13:31:14;20.87;;;10.33;;
3131;SDS011;62090;52.330;9.104;2022-10-31T13:33:45;30.30;;;11.57;;
3131;SDS011;62090;52.330;9.104;2022-10-31T13:36:22;25.60;;;11.37;;
3131;SDS011;62090;52.330;9.104;2022-10-31T13:38:59;21.53;;;10.03;;
3131;SDS011;62090;52.330;9.104;2022-10-31T13:41:42;27.47;;;12.03;;
3131;SDS011;62090;52.330;9.104;2022-10-31T13:44:17;22.20;;;10.47;;
3131;SDS011;62090;52.330;9.104;2022-10-31T13:46:50;23.87;;;10.93;;
3131;SDS011;62090;52.330;9.104;2022-10-31T13:49:23;27.57;;;10.47;;
3131;SDS011;62090;52.330;9.104;2022-10-31T13:52:12;28.90;;;12.67;;
3131;SDS011;62090;52.330;9.104;2022-10-31T13:54:46;25.80;;;11.87;;
3131;SDS011;62090;52.330;9.104;2022-10-31T13:57:29;29.20;;;11.23;;
3131;SDS011;62090;52.330;9.104;2022-10-31T14:00:04;27.47;;;11.57;;
3131;SDS011;62090;52.330;9.104;2022-10-31T14:02:44;25.33;;;11.53;;
3131;SDS011;62090;52.330;9.104;2022-10-31T14:05:21;23.23;;;11.97;;
3131;SDS011;62090;52.330;9.104;2022-10-31T14:07:53;36.27;;;12.30;;
3131;SDS011;62090;52.330;9.104;2022-10-31T14:10:27;27.70;;;12.33;;
3131;SDS011;62090;52.330;9.104;2022-10-31T14:13:07;37.27;;;12.27;;
3131;SDS011;62090;52.330;9.104;2022-10-31T14:15:51;33.50;;;13.40;;
3131;SDS011;62090;52.330;9.104;2022-10-31T14:18:24;29.67;;;13.00;;
3131;SDS011;62090;52.330;9.104;2022-10-31T14:20:58;30.20;;;13.10;;
3131;SDS011;62090;52.330;9.104;2022-10-31T14:23:37;30.53;;;12.83;;
3131;SDS011;62090;52.330;9.104;2022-10-31T14:26:17;31.57;;;13.40;;
3131;SDS011;62090;52.330;9.104;2022-10-31T14:28:56;29.73;;;13.30;;
3131;SDS011;62090;52.330;9.104;2022-10-31T14:31:32;31.47;;;13.70;;
3131;SDS011;62090;52.330;9.104;2022-10-31T14:34:15;28.90;;;12.20;;
3131;SDS011;62090;52.330;9.104;2022-10-31T14:36:56;29.83;;;13.17;;
3131;SDS011;62090;52.330;9.104;2022-10-31T14:39:40;29.10;;;12.90;;
3131;SDS011;62090;52.330;9.104;2022-10-31T14:42:27;27.03;;;11.27;;
3131;SDS011;62090;52.330;9.104;2022-10-31T14:45:12;25.43;;;13.10;;
3131;SDS011;62090;52.330;9.104;2022-10-31T14:47:54;25.27;;;12.43;;
3131;SDS011;62090;52.330;9.104;2022-10-31T14:50:37;28.70;;;11.60;;
3131;SDS011;62090;52.330;9.104;2022-10-31T14:53:13;27.10;;;11.00;;
3131;SDS011;62090;52.330;9.104;2022-10-31T14:55:48;29.03;;;10.60;;
3131;SDS011;62090;52.330;9.104;2022-10-31T14:58:28;29.67;;;13.00;;
3131;SDS011;62090;52.330;9.104;2022-10-31T15:01:07;33.27;;;12.90;;
3131;SDS011;62090;52.330;9.104;2022-10-31T15:03:38;33.03;;;11.53;;
3131;SDS011;62090;52.330;9.104;2022-10-31T15:06:35;25.77;;;11.40;;
3131;SDS011;62090;52.330;9.104;2022-10-31T15:09:22;27.57;;;10.90;;
3131;SDS011;62090;52.330;9.104;2022-10-31T15:11:54;26.73;;;11.00;;
3131;SDS011;62090;52.330;9.104;2022-10-31T15:14:24;25.70;;;11.47;;
3131;SDS011;62090;52.330;9.104;2022-10-31T15:17:01;31.10;;;12.33;;
3131;SDS011;62090;52.330;9.104;2022-10-31T15:19:32;20.40;;;10.43;;
3131;SDS011;62090;52.330;9.104;2022-10-31T15:22:05;19.83;;;11.30;;
3131;SDS011;62090;52.330;9.104;2022-10-31T15:24:39;17.43;;;9.57;;
3131;SDS011;62090;52.330;9.104;2022-10-31T15:27:10;28.87;;;12.23;;
3131;SDS011;62090;52.330;9.104;2022-10-31T15:29:48;25.57;;;10.53;;
3131;SDS011;62090;52.330;9.104;2022-10-31T15:32:23;26.77;;;11.37;;
3131;SDS011;62090;52.330;9.104;2022-10-31T15:34:54;28.30;;;11.67;;
3131;SDS011;62090;52.330;9.104;2022-10-31T15:37:26;23.17;;;12.00;;
3131;SDS011;62090;52.330;9.104;2022-10-31T15:40:05;28.13;;;12.20;;
3131;SDS011;62090;52.330;9.104;2022-10-31T15:42:39;27.20;;;12.70;;
3131;SDS011;62090;52.330;9.104;2022-10-31T15:45:16;36.50;;;12.90;;
3131;SDS011;62090;52.330;9.104;2022-10-31T15:47:52;24.67;;;11.90;;
3131;SDS011;62090;52.330;9.104;2022-10-31T15:50:27;19.70;;;12.00;;